createdAt,value
2019-05-14T00:00:21.671Z,2.82
2019-05-14T00:05:27.697Z,2.93
2019-05-14T00:10:44.612Z,3.05
2019-05-14T00:15:43.081Z,2.97
2019-05-14T00:20:51.227Z,3.20
2019-05-14T00:25:57.907Z,3.28
2019-05-14T00:31:05.522Z,3.21
2019-05-14T00:36:13.313Z,3.73
2019-05-14T00:41:21.525Z,3.96
2019-05-14T00:46:28.237Z,3.59
2019-05-14T00:51:35.901Z,3.96
2019-05-14T00:56:43.648Z,3.64
2019-05-14T01:01:51.761Z,3.81
2019-05-14T01:06:58.505Z,4.23
2019-05-14T01:12:06.141Z,4.01
2019-05-14T01:17:13.909Z,4.00
2019-05-14T01:22:21.549Z,6.24
2019-05-14T01:27:29.216Z,4.99
2019-05-14T01:32:36.857Z,4.91
2019-05-14T01:37:44.548Z,5.60
2019-05-14T01:42:52.388Z,4.66
2019-05-14T01:48:01.263Z,5.40
2019-05-14T01:53:06.927Z,4.67
2019-05-14T01:58:14.584Z,4.64
2019-05-14T02:03:22.176Z,4.62
2019-05-14T02:08:31.967Z,5.05
2019-05-14T02:13:37.029Z,4.84
2019-05-14T02:18:44.706Z,4.76
2019-05-14T02:23:52.296Z,4.86
2019-05-14T02:29:01.892Z,4.62
2019-05-14T02:34:10.037Z,5.07
2019-05-14T02:39:14.528Z,5.54
2019-05-14T02:44:22.121Z,5.15
2019-05-14T02:49:30.264Z,5.55
2019-05-14T02:54:40.467Z,5.96
2019-05-14T02:59:44.754Z,5.05
2019-05-14T03:04:52.396Z,6.09
2019-05-14T03:10:00.041Z,5.75
2019-05-14T03:15:09.616Z,5.94
2019-05-14T03:20:14.990Z,4.91
2019-05-14T03:25:22.624Z,5.57
2019-05-14T03:30:32.381Z,5.23
2019-05-14T03:35:43.811Z,6.47
2019-05-14T03:40:44.852Z,5.25
2019-05-14T03:45:52.536Z,5.44
2019-05-14T03:51:00.630Z,6.12
2019-05-14T03:56:10.173Z,5.78
2019-05-14T04:01:14.854Z,6.18
2019-05-14T04:06:22.473Z,6.65
2019-05-14T04:11:30.128Z,6.30
2019-05-14T04:16:39.932Z,6.20
2019-05-14T04:21:44.896Z,6.66
2019-05-14T04:27:02.098Z,6.88
2019-05-14T04:32:00.367Z,8.16
2019-05-14T04:37:09.727Z,7.49
2019-05-14T04:42:14.377Z,6.79
2019-05-14T04:47:27.831Z,7.41
2019-05-14T04:52:29.396Z,7.22
2019-05-14T04:57:39.228Z,7.64
2019-05-14T05:02:44.053Z,8.37
2019-05-14T05:07:54.711Z,8.32
2019-05-14T05:12:52.418Z,7.81
2019-05-14T05:18:00.034Z,7.83
2019-05-14T05:23:08.491Z,7.49
2019-05-14T05:28:14.858Z,7.94
2019-05-14T05:33:22.486Z,7.20
2019-05-14T05:38:30.117Z,6.74
2019-05-14T05:43:39.367Z,8.20
2019-05-14T05:48:44.974Z,8.19
2019-05-14T05:53:52.752Z,6.75
2019-05-14T05:59:00.743Z,6.39
2019-05-14T06:04:08.770Z,6.88
2019-05-14T06:09:14.632Z,6.30
2019-05-14T06:14:22.266Z,6.84
2019-05-14T06:19:29.864Z,6.36
2019-05-14T06:24:38.963Z,6.35
2019-05-14T06:29:44.760Z,6.29
2019-05-14T06:34:52.397Z,6.71
2019-05-14T06:40:00.048Z,6.04
2019-05-14T06:55:21.657Z,5.49
2019-05-14T07:00:29.295Z,6.30
2019-05-14T07:05:39.025Z,5.49
2019-05-14T07:10:44.053Z,5.49
2019-05-14T07:15:51.680Z,5.81
2019-05-14T07:20:59.293Z,5.91
2019-05-14T07:26:08.464Z,5.77
2019-05-14T07:31:14.130Z,5.67
2019-05-14T07:36:21.866Z,5.75
2019-05-14T07:41:29.498Z,5.91
2019-05-14T07:46:38.930Z,5.16
2019-05-14T07:51:44.270Z,5.25
2019-05-14T07:56:53.031Z,5.07
2019-05-14T08:01:59.035Z,5.97
2019-05-14T08:07:08.923Z,5.51
2019-05-14T08:12:16.362Z,5.75
2019-05-14T08:17:21.121Z,6.24
2019-05-14T08:22:29.272Z,6.29
2019-05-14T08:27:35.921Z,6.09
2019-05-14T08:32:43.524Z,5.77
2019-05-14T08:38:04.691Z,5.29
2019-05-14T08:42:58.447Z,5.43
2019-05-14T08:48:05.949Z,5.55
2019-05-14T08:53:13.693Z,4.14
2019-05-14T08:58:22.048Z,3.76
2019-05-14T09:03:29.631Z,4.49
2019-05-14T09:08:39.090Z,5.23
2019-05-14T09:13:44.473Z,5.23
2019-05-14T09:18:52.088Z,5.39
2019-05-14T09:23:59.927Z,5.44
2019-05-14T09:29:19.486Z,4.75
2019-05-14T09:34:14.751Z,5.15
2019-05-14T09:39:22.364Z,4.00
2019-05-14T09:44:30.005Z,4.59
2019-05-14T09:49:38.915Z,4.39
2019-05-14T09:54:44.840Z,4.00
2019-05-14T09:59:52.441Z,3.87
2019-05-14T10:05:00.124Z,4.24
2019-05-14T10:10:07.785Z,3.74
2019-05-14T10:15:15.425Z,4.46
2019-05-14T10:20:36.408Z,4.61
2019-05-14T10:25:31.256Z,3.93
2019-05-14T10:30:38.864Z,4.69
2019-05-14T10:35:48.384Z,4.12
2019-05-14T10:40:54.813Z,4.30
2019-05-14T10:46:02.501Z,3.77
2019-05-14T10:51:10.153Z,4.21
2019-05-14T10:56:19.070Z,4.24
2019-05-14T11:01:24.945Z,4.11
2019-05-14T11:06:32.672Z,4.37
2019-05-14T11:11:43.754Z,4.49
2019-05-14T11:16:42.075Z,4.53
2019-05-14T11:21:49.472Z,3.86
2019-05-14T11:26:59.074Z,4.38
2019-05-14T11:32:04.338Z,4.19
2019-05-14T11:37:11.945Z,4.71
2019-05-14T11:42:20.022Z,4.68
2019-05-14T11:47:26.748Z,4.63
2019-05-14T11:52:34.382Z,4.60
2019-05-14T11:57:42.088Z,4.85
2019-05-14T12:02:49.669Z,4.78
2019-05-14T12:08:10.969Z,5.29
2019-05-14T12:12:58.591Z,4.36
2019-05-14T12:18:06.203Z,4.64
2019-05-14T12:23:14.076Z,4.67
2019-05-14T12:28:21.761Z,4.55
2019-05-14T12:33:31.176Z,4.61
2019-05-14T12:38:38.237Z,5.14
2019-05-14T12:43:44.050Z,5.16
2019-05-14T12:48:50.904Z,5.21
2019-05-14T12:53:58.508Z,4.98
2019-05-14T12:59:06.155Z,4.70
2019-05-14T13:04:13.748Z,5.26
2019-05-14T13:09:21.823Z,4.82
2019-05-14T13:14:28.560Z,4.70
2019-05-14T13:19:37.968Z,5.34
2019-05-14T13:24:43.320Z,4.99
2019-05-14T13:29:51.230Z,5.39
2019-05-14T13:34:59.258Z,5.21
2019-05-14T13:40:08.978Z,4.90
2019-05-14T13:45:13.182Z,4.50
2019-05-14T13:50:20.828Z,4.69
2019-05-14T13:55:30.633Z,4.65
2019-05-14T14:00:35.586Z,4.45
2019-05-14T14:05:43.261Z,4.80
2019-05-14T14:10:53.688Z,4.79
2019-05-14T14:15:58.880Z,4.53
2019-05-14T14:21:05.325Z,4.24
2019-05-14T14:26:13.320Z,4.68
2019-05-14T14:31:20.950Z,4.74
2019-05-14T14:36:29.910Z,4.88
2019-05-14T14:41:38.297Z,4.67
2019-05-14T14:46:42.986Z,4.37
2019-05-14T14:51:50.593Z,4.83
2019-05-14T14:56:59.212Z,4.55
2019-05-14T15:02:05.358Z,4.26
2019-05-14T15:12:22.640Z,4.13
2019-05-14T15:17:30.283Z,4.09
2019-05-14T15:22:38.191Z,4.32
2019-05-14T15:27:45.792Z,4.33
2019-05-14T15:32:53.416Z,4.55
2019-05-14T15:38:01.013Z,4.67
2019-05-14T15:43:09.930Z,4.82
2019-05-14T15:48:15.863Z,4.51
2019-05-14T15:53:23.475Z,4.60
2019-05-14T15:58:31.064Z,4.77
2019-05-14T16:03:41.403Z,4.73
2019-05-14T16:08:48.849Z,5.16
2019-05-14T16:13:54.929Z,4.98
2019-05-14T16:19:02.529Z,4.59
2019-05-14T16:24:10.157Z,4.49
2019-05-14T16:29:19.248Z,4.78
2019-05-14T16:34:25.100Z,4.85
2019-05-14T16:39:32.704Z,5.13
2019-05-14T16:44:40.316Z,4.64
2019-05-14T16:49:48.177Z,4.84
2019-05-14T16:55:13.302Z,4.51
2019-05-14T17:00:02.265Z,4.60
2019-05-14T17:05:09.885Z,4.48
2019-05-14T17:10:18.203Z,4.74
2019-05-14T17:15:34.229Z,4.73
2019-05-14T17:20:31.840Z,4.83
2019-05-14T17:25:39.465Z,4.65
2019-05-14T17:30:49.179Z,4.59
2019-05-14T17:35:54.297Z,4.48
2019-05-14T17:41:01.873Z,4.51
2019-05-14T17:46:10.003Z,4.64
2019-05-14T17:51:18.148Z,4.49
2019-05-14T17:56:23.925Z,4.30
2019-05-14T18:01:31.555Z,4.02
2019-05-14T18:06:39.183Z,4.46
2019-05-14T18:11:48.962Z,5.71
2019-05-14T18:16:53.928Z,4.99
2019-05-14T18:22:01.533Z,4.48
2019-05-14T18:27:09.150Z,3.86
2019-05-14T18:32:18.869Z,4.30
2019-05-14T18:37:23.913Z,4.46
2019-05-14T18:42:40.628Z,4.19
2019-05-14T18:47:39.863Z,6.01
2019-05-14T18:52:48.367Z,4.90
2019-05-14T18:58:01.369Z,4.49
2019-05-14T19:02:58.974Z,4.48
2019-05-14T19:08:07.300Z,4.63
2019-05-14T19:13:14.903Z,4.12
2019-05-14T19:18:22.510Z,4.37
2019-05-14T19:23:39.247Z,4.49
2019-05-14T19:28:38.799Z,4.49
2019-05-14T19:33:43.959Z,4.45
2019-05-14T19:38:52.582Z,4.57
2019-05-14T19:44:00.205Z,4.64
2019-05-14T19:49:08.325Z,4.56
2019-05-14T19:54:15.923Z,4.48
2019-05-14T19:59:25.924Z,4.51
2019-05-14T20:04:30.774Z,4.68
2019-05-14T20:09:38.783Z,4.05
2019-05-14T20:14:45.496Z,4.50
2019-05-14T20:19:53.119Z,4.50
2019-05-14T20:25:00.969Z,5.12
2019-05-14T20:30:08.771Z,5.23
2019-05-14T20:35:29.879Z,5.58
2019-05-14T20:40:23.320Z,5.17
2019-05-14T20:45:30.930Z,4.95
2019-05-14T20:50:38.711Z,5.25
2019-05-14T20:55:46.317Z,5.49
2019-05-14T21:00:54.011Z,5.46
2019-05-14T21:06:01.678Z,5.67
2019-05-14T21:11:09.356Z,6.58
2019-05-14T21:16:18.139Z,6.35
2019-05-14T21:21:24.389Z,6.29
2019-05-14T21:26:32.374Z,6.68
2019-05-14T21:31:40.068Z,6.80
2019-05-14T21:36:48.391Z,6.41
2019-05-14T21:41:56.075Z,6.61
2019-05-14T21:47:03.758Z,6.45
2019-05-14T21:57:19.091Z,7.49
2019-05-14T22:02:28.261Z,6.98
2019-05-14T22:07:34.256Z,6.10
2019-05-14T22:12:41.911Z,7.10
2019-05-14T22:17:49.587Z,8.75
2019-05-14T22:22:59.105Z,8.97
2019-05-14T22:28:12.270Z,8.65
2019-05-14T22:33:11.671Z,8.13
2019-05-14T22:38:20.310Z,8.19
2019-05-14T22:43:39.900Z,8.23
2019-05-14T22:48:27.635Z,7.01
2019-05-14T22:53:35.302Z,6.98
2019-05-14T22:58:44.161Z,7.64
2019-05-14T23:03:51.803Z,7.84
2019-05-14T23:08:59.574Z,7.74
2019-05-14T23:14:07.238Z,8.07
2019-05-14T23:19:15.026Z,8.55
2019-05-14T23:24:22.686Z,10.02
2019-05-14T23:29:30.390Z,9.65
2019-05-14T23:34:38.175Z,9.70
2019-05-14T23:39:45.874Z,9.37
2019-05-14T23:44:53.521Z,10.16
2019-05-14T23:50:01.304Z,9.78
2019-05-14T23:55:09.175Z,9.43
